Time;durP1;ratioP1;P1;durP2;ratioP2;P2;SDS_P1;SDS_P2;PMS_P1;PMS_P2;Temp;Humidity;BMP_temperature;BMP_pressure;BME280_temperature;BME280_humidity;BME280_pressure;Samples;Min_cycle;Max_cycle;Signal;HPM_P1;HPM_P2
2024/02/14 00:01:55;;;;;;;1.20;0.90;;;23.30;50.10;;;;;;5077763;28;20012;-63
2024/02/14 00:04:21;;;;;;;1.80;1.08;;;23.30;50.00;;;;;;5077847;28;20155;-63
2024/02/14 00:06:47;;;;;;;2.58;1.10;;;23.30;50.00;;;;;;5078320;28;20039;-63
2024/02/14 00:09:12;;;;;;;2.85;1.05;;;23.30;50.00;;;;;;5079527;28;20112;-63
2024/02/14 00:11:38;;;;;;;2.83;0.88;;;23.30;50.00;;;;;;5080242;28;20237;-63
2024/02/14 00:14:04;;;;;;;1.80;1.10;;;23.30;49.90;;;;;;5078269;28;20020;-63
2024/02/14 00:16:30;;;;;;;1.35;0.98;;;23.30;49.90;;;;;;5078585;28;20035;-63
2024/02/14 00:18:56;;;;;;;1.63;1.08;;;23.30;49.90;;;;;;5078588;28;20124;-63
2024/02/14 00:21:23;;;;;;;1.95;1.00;;;23.30;50.40;;;;;;5079674;28;20130;-62
2024/02/14 00:23:49;;;;;;;1.83;1.20;;;23.30;49.80;;;;;;5078119;28;20024;-64
2024/02/14 00:26:15;;;;;;;1.83;1.00;;;23.30;49.80;;;;;;5078852;28;20445;-63
2024/02/14 00:28:41;;;;;;;1.98;1.20;;;23.30;49.80;;;;;;5078312;28;20143;-63
2024/02/14 00:31:06;;;;;;;1.40;1.05;;;23.30;49.70;;;;;;5077132;28;20128;-62
2024/02/14 00:33:32;;;;;;;1.83;0.90;;;23.30;49.70;;;;;;5066753;28;20571;-63
2024/02/14 00:35:57;;;;;;;1.63;1.00;;;23.30;49.70;;;;;;5078906;28;20506;-64
2024/02/14 00:38:23;;;;;;;2.13;0.90;;;23.30;49.70;;;;;;5079540;28;20040;-64
2024/02/14 00:40:49;;;;;;;1.65;1.00;;;23.30;49.70;;;;;;5061013;28;20491;-64
2024/02/14 00:43:14;;;;;;;1.55;1.00;;;23.30;49.70;;;;;;5077600;28;20059;-64
2024/02/14 00:45:40;;;;;;;1.90;0.90;;;23.30;49.60;;;;;;5079038;28;20407;-65
2024/02/14 00:48:07;;;;;;;1.73;1.00;;;23.30;49.60;;;;;;5078362;28;20041;-64
2024/02/14 00:50:33;;;;;;;1.45;0.90;;;23.30;49.50;;;;;;5076757;28;20031;-64
2024/02/14 00:53:00;;;;;;;1.48;0.98;;;23.30;49.60;;;;;;5079281;28;20060;-64
2024/02/14 00:55:25;;;;;;;1.10;0.85;;;23.30;49.50;;;;;;5069805;28;20024;-64
2024/02/14 00:57:51;;;;;;;1.63;0.80;;;23.30;49.50;;;;;;5076734;28;20435;-64
2024/02/14 01:00:17;;;;;;;1.02;0.80;;;23.30;49.50;;;;;;5078756;28;20847;-63
2024/02/14 01:02:43;;;;;;;1.00;0.80;;;23.30;49.40;;;;;;5079419;28;20449;-64
2024/02/14 01:05:09;;;;;;;1.45;0.90;;;23.30;49.40;;;;;;5077713;28;20032;-63
2024/02/14 01:07:35;;;;;;;1.17;0.85;;;23.30;49.40;;;;;;5078963;28;20039;-63
2024/02/14 01:10:01;;;;;;;1.65;1.00;;;23.30;49.40;;;;;;5076989;28;20032;-64
2024/02/14 01:12:28;;;;;;;1.77;1.10;;;23.30;49.40;;;;;;5060728;28;20395;-63
2024/02/14 01:14:53;;;;;;;1.67;0.90;;;23.30;50.00;;;;;;5078978;28;20146;-63
2024/02/14 01:17:19;;;;;;;1.20;0.88;;;23.30;49.40;;;;;;5079460;28;20151;-62
2024/02/14 01:19:45;;;;;;;2.00;0.90;;;23.30;49.40;;;;;;5076419;28;20690;-64
2024/02/14 01:22:11;;;;;;;2.08;1.00;;;23.30;49.40;;;;;;5075149;28;20028;-63
2024/02/14 01:24:37;;;;;;;1.58;1.00;;;23.30;49.40;;;;;;5078530;28;20111;-63
2024/02/14 01:27:03;;;;;;;4.18;1.10;;;23.30;49.40;;;;;;5076793;28;20032;-63
2024/02/14 01:29:29;;;;;;;1.20;0.90;;;23.30;49.40;;;;;;5078912;28;20036;-63
2024/02/14 01:31:55;;;;;;;2.30;1.00;;;23.30;49.30;;;;;;5083827;28;20103;-63
2024/02/14 01:34:21;;;;;;;1.40;1.00;;;23.30;49.40;;;;;;5098952;28;20027;-63
2024/02/14 01:36:48;;;;;;;2.03;1.10;;;23.30;49.30;;;;;;5079874;28;20870;-62
2024/02/14 01:39:13;;;;;;;1.70;0.90;;;23.30;49.30;;;;;;5081475;28;20427;-63
2024/02/14 01:41:45;;;;;;;1.60;1.10;;;23.30;49.30;;;;;;5080814;28;20081;-63
2024/02/14 01:44:11;;;;;;;1.20;1.00;;;23.30;49.20;;;;;;5082187;28;20028;-63
2024/02/14 01:46:37;;;;;;;1.52;0.90;;;23.30;49.20;;;;;;5082726;28;20387;-63
2024/02/14 01:49:03;;;;;;;1.50;0.82;;;23.30;49.20;;;;;;5081112;28;20032;-64
2024/02/14 01:51:29;;;;;;;1.50;0.90;;;23.20;49.10;;;;;;5082478;28;20052;-64
2024/02/14 01:53:56;;;;;;;1.30;0.90;;;23.20;49.10;;;;;;5081578;28;20099;-64
2024/02/14 01:56:21;;;;;;;1.60;0.93;;;23.20;49.10;;;;;;5075611;28;20038;-64
2024/02/14 01:58:47;;;;;;;2.08;1.20;;;23.20;49.10;;;;;;5081302;28;20024;-64
2024/02/14 02:01:13;;;;;;;1.40;0.90;;;23.20;49.10;;;;;;5079488;28;20055;-64
2024/02/14 02:03:39;;;;;;;1.20;0.80;;;23.20;49.00;;;;;;5078737;28;20043;-64
2024/02/14 02:06:06;;;;;;;1.80;0.85;;;23.10;49.10;;;;;;5081083;28;20213;-63
2024/02/14 02:08:32;;;;;;;1.50;0.90;;;23.10;49.10;;;;;;5081496;28;20084;-64
2024/02/14 02:10:58;;;;;;;1.27;0.90;;;23.10;49.00;;;;;;5081137;28;20035;-64
2024/02/14 02:13:25;;;;;;;1.77;1.00;;;23.10;49.10;;;;;;5083727;28;20093;-64
2024/02/14 02:15:53;;;;;;;1.27;0.80;;;23.10;49.10;;;;;;5081782;28;20021;-64
2024/02/14 02:18:19;;;;;;;1.48;1.00;;;23.00;49.10;;;;;;5080558;28;20032;-64
2024/02/14 02:20:45;;;;;;;1.63;0.90;;;23.00;49.10;;;;;;5082401;28;20061;-64
2024/02/14 02:23:17;;;;;;;1.60;0.90;;;23.00;49.10;;;;;;5083290;28;20024;-64
2024/02/14 02:25:43;;;;;;;1.08;0.73;;;23.00;49.10;;;;;;5081846;28;20099;-64
2024/02/14 02:28:09;;;;;;;1.15;0.80;;;23.00;49.60;;;;;;5081849;28;20165;-64
2024/02/14 02:30:38;;;;;;;1.10;1.00;;;22.90;49.00;;;;;;5081254;28;20119;-64
2024/02/14 02:33:04;;;;;;;1.15;0.82;;;22.90;49.00;;;;;;5083242;28;20112;-64
2024/02/14 02:35:30;;;;;;;1.55;0.93;;;22.90;49.10;;;;;;5080045;28;20040;-64
2024/02/14 02:37:56;;;;;;;1.00;0.80;;;22.80;49.10;;;;;;5083504;28;20024;-64
2024/02/14 02:40:23;;;;;;;1.30;0.90;;;22.90;49.10;;;;;;5081178;28;20369;-64
2024/02/14 02:42:50;;;;;;;1.27;0.70;;;22.80;49.10;;;;;;5081190;28;20032;-64
2024/02/14 02:45:16;;;;;;;1.13;0.90;;;22.80;49.10;;;;;;5079582;28;20032;-64
2024/02/14 02:47:42;;;;;;;1.23;0.77;;;22.80;49.10;;;;;;5079718;28;20395;-64
2024/02/14 02:50:08;;;;;;;1.35;1.00;;;22.80;49.10;;;;;;5080388;28;20031;-64
2024/02/14 02:52:34;;;;;;;1.15;0.80;;;22.70;49.10;;;;;;5079857;28;20028;-64
2024/02/14 02:55:04;;;;;;;1.20;0.90;;;22.70;49.10;;;;;;5080030;28;20026;-64
2024/02/14 02:57:32;;;;;;;1.05;0.80;;;22.70;49.10;;;;;;5081407;28;20031;-64
2024/02/14 02:59:58;;;;;;;1.60;0.90;;;22.70;49.10;;;;;;5081535;28;20424;-62
2024/02/14 03:02:25;;;;;;;1.00;0.73;;;22.60;49.10;;;;;;5078708;28;20036;-63
2024/02/14 03:04:51;;;;;;;1.20;0.80;;;22.60;49.20;;;;;;5081795;28;20025;-62
2024/02/14 03:07:16;;;;;;;1.27;0.70;;;22.60;49.20;;;;;;5079873;28;20390;-63
2024/02/14 03:09:42;;;;;;;1.23;0.70;;;22.60;49.20;;;;;;5081651;28;20089;-64
2024/02/14 03:12:09;;;;;;;1.10;0.80;;;22.50;49.20;;;;;;5080633;28;20082;-62
2024/02/14 03:14:36;;;;;;;0.93;0.70;;;22.60;49.20;;;;;;5080691;28;20476;-62
2024/02/14 03:17:04;;;;;;;0.60;0.60;;;22.50;49.20;;;;;;5079509;28;20020;-62
2024/02/14 03:19:30;;;;;;;1.40;0.80;;;22.50;49.20;;;;;;5077885;28;20120;-66
2024/02/14 03:21:56;;;;;;;1.08;0.70;;;22.50;49.30;;;;;;5078580;28;20103;-66
2024/02/14 03:24:25;;;;;;;0.85;0.80;;;22.50;49.30;;;;;;5081320;28;20043;-65
2024/02/14 03:26:54;;;;;;;0.80;0.70;;;22.40;49.20;;;;;;5070321;28;20060;-65
2024/02/14 03:29:20;;;;;;;2.03;0.90;;;22.40;49.30;;;;;;5080638;28;20405;-66
2024/02/14 03:31:46;;;;;;;0.98;0.68;;;22.40;49.30;;;;;;5080982;28;20035;-65
2024/02/14 03:34:12;;;;;;;1.00;0.70;;;22.40;49.30;;;;;;5080091;28;20035;-66
2024/02/14 03:36:39;;;;;;;0.75;0.70;;;22.40;49.30;;;;;;5080226;28;20103;-66
2024/02/14 03:39:05;;;;;;;1.20;0.88;;;22.40;49.30;;;;;;5078710;28;20503;-65
2024/02/14 03:41:31;;;;;;;1.00;0.80;;;22.30;49.30;;;;;;5081206;28;20113;-65
2024/02/14 03:44:00;;;;;;;1.23;0.90;;;22.30;49.30;;;;;;5079308;28;20058;-66
2024/02/14 03:46:27;;;;;;;0.80;0.70;;;22.30;49.30;;;;;;5061094;28;20079;-66
2024/02/14 03:48:53;;;;;;;1.13;0.90;;;22.30;49.80;;;;;;5093079;28;20025;-66
2024/02/14 03:51:19;;;;;;;0.88;0.70;;;22.30;49.30;;;;;;5068087;28;20029;-66
2024/02/14 03:53:45;;;;;;;1.00;0.80;;;22.30;49.40;;;;;;5079583;28;20502;-65
2024/02/14 03:56:12;;;;;;;0.98;0.80;;;22.30;49.40;;;;;;5080529;28;20056;-65
2024/02/14 03:58:38;;;;;;;1.25;0.70;;;22.20;49.30;;;;;;5079125;28;20020;-66
2024/02/14 04:01:04;;;;;;;1.27;0.80;;;22.20;49.40;;;;;;5080074;28;20024;-66
2024/02/14 04:03:30;;;;;;;0.90;0.70;;;22.20;49.40;;;;;;5079165;28;20046;-66
2024/02/14 04:05:56;;;;;;;0.95;0.80;;;22.20;49.40;;;;;;5079142;28;20032;-66
2024/02/14 04:08:22;;;;;;;1.20;0.80;;;22.20;49.40;;;;;;5079623;28;20075;-66
2024/02/14 04:10:53;;;;;;;1.15;0.82;;;22.10;49.90;;;;;;5062488;28;20056;-65
2024/02/14 04:13:19;;;;;;;1.05;0.80;;;22.10;49.40;;;;;;5079227;28;20039;-66
2024/02/14 04:15:46;;;;;;;1.02;0.70;;;22.10;49.40;;;;;;5078368;28;20024;-65
2024/02/14 04:18:12;;;;;;;1.23;0.90;;;22.10;49.40;;;;;;5078705;28;20077;-65
2024/02/14 04:20:37;;;;;;;0.88;0.70;;;22.10;49.50;;;;;;5077345;28;20020;-66
2024/02/14 04:23:06;;;;;;;0.80;0.70;;;22.10;49.50;;;;;;5077072;28;20062;-65
2024/02/14 04:25:32;;;;;;;1.05;0.70;;;22.10;49.50;;;;;;5079120;28;20528;-65
2024/02/14 04:27:59;;;;;;;1.20;0.80;;;22.10;49.50;;;;;;5077733;28;20044;-65
2024/02/14 04:30:25;;;;;;;0.98;0.73;;;22.00;49.50;;;;;;5079068;28;20051;-65
2024/02/14 04:32:51;;;;;;;0.88;0.73;;;22.00;49.50;;;;;;5080146;28;20047;-65
2024/02/14 04:35:19;;;;;;;0.98;0.80;;;22.00;49.50;;;;;;5076576;28;20081;-65
2024/02/14 04:37:46;;;;;;;0.93;0.80;;;22.00;49.60;;;;;;5078568;28;20016;-65
2024/02/14 04:40:12;;;;;;;1.00;0.77;;;22.00;49.60;;;;;;5078404;28;20476;-65
2024/02/14 04:42:38;;;;;;;1.25;0.77;;;22.00;49.60;;;;;;5080301;28;20036;-65
2024/02/14 04:45:04;;;;;;;1.08;0.80;;;21.90;49.60;;;;;;5080161;28;20440;-65
2024/02/14 04:47:30;;;;;;;0.95;0.73;;;21.90;49.60;;;;;;5080498;28;20024;-65
2024/02/14 04:49:56;;;;;;;0.93;0.77;;;21.90;49.60;;;;;;5077812;28;20388;-65
2024/02/14 04:52:22;;;;;;;0.77;0.65;;;21.90;49.60;;;;;;5078809;28;20517;-65
2024/02/14 04:54:47;;;;;;;0.98;0.80;;;21.90;49.60;;;;;;5077039;28;20030;-65
2024/02/14 04:57:14;;;;;;;1.02;0.80;;;21.90;49.60;;;;;;5077515;28;20028;-65
2024/02/14 04:59:39;;;;;;;1.10;0.90;;;21.90;49.70;;;;;;5078065;28;20024;-65
2024/02/14 05:02:05;;;;;;;0.90;0.70;;;21.90;49.70;;;;;;5079626;28;20110;-65
2024/02/14 05:04:31;;;;;;;0.80;0.70;;;21.90;49.70;;;;;;5080424;28;20497;-65
2024/02/14 05:06:57;;;;;;;0.90;0.80;;;21.80;49.70;;;;;;5081241;28;20468;-65
2024/02/14 05:09:22;;;;;;;1.02;0.80;;;21.80;49.70;;;;;;5064054;28;20035;-65
2024/02/14 05:11:48;;;;;;;1.30;0.80;;;21.80;49.70;;;;;;5063167;28;20557;-65
2024/02/14 05:14:14;;;;;;;1.17;0.90;;;21.80;49.70;;;;;;5081404;28;20464;-65
2024/02/14 05:16:40;;;;;;;1.27;0.88;;;21.80;49.70;;;;;;5080427;28;20031;-65
2024/02/14 05:19:06;;;;;;;1.10;0.80;;;21.80;49.70;;;;;;5082584;28;20020;-64
2024/02/14 05:21:31;;;;;;;0.90;0.70;;;21.80;49.70;;;;;;5077192;28;20032;-64
2024/02/14 05:23:57;;;;;;;1.08;0.77;;;21.80;49.80;;;;;;5082091;28;20031;-64
2024/02/14 05:26:23;;;;;;;0.70;0.70;;;21.80;49.80;;;;;;5081897;28;20073;-64
2024/02/14 05:28:49;;;;;;;0.93;0.80;;;21.80;49.80;;;;;;5082337;28;20377;-64
2024/02/14 05:31:16;;;;;;;1.02;0.73;;;21.70;49.80;;;;;;5078148;28;20591;-64
2024/02/14 05:33:43;;;;;;;1.13;0.80;;;21.70;49.80;;;;;;5081555;28;20469;-64
2024/02/14 05:36:08;;;;;;;1.50;0.80;;;21.70;49.80;;;;;;5080619;28;20044;-64
2024/02/14 05:38:34;;;;;;;2.00;1.00;;;21.70;49.80;;;;;;5079310;28;20487;-64
2024/02/14 05:41:00;;;;;;;1.42;0.80;;;21.70;49.80;;;;;;5082008;28;20452;-62
2024/02/14 05:43:26;;;;;;;1.30;0.90;;;21.70;49.80;;;;;;5084079;28;20438;-62
2024/02/14 05:45:51;;;;;;;1.30;0.80;;;21.70;49.80;;;;;;5082026;28;20029;-62
2024/02/14 05:48:17;;;;;;;1.02;0.80;;;21.70;49.90;;;;;;5082423;28;20036;-62
2024/02/14 05:50:43;;;;;;;0.98;0.80;;;21.70;49.90;;;;;;5079853;28;20020;-62
2024/02/14 05:53:08;;;;;;;1.38;0.88;;;21.70;49.80;;;;;;5082319;28;20166;-63
2024/02/14 05:55:34;;;;;;;0.95;0.80;;;21.70;49.90;;;;;;5082372;28;20552;-62
2024/02/14 05:58:00;;;;;;;1.13;0.80;;;21.70;49.90;;;;;;5080564;28;20096;-63
2024/02/14 06:00:26;;;;;;;1.02;0.80;;;21.70;49.90;;;;;;5082085;28;20028;-63
2024/02/14 06:02:52;;;;;;;1.00;0.80;;;21.70;49.90;;;;;;5080680;28;20482;-62
2024/02/14 06:05:17;;;;;;;1.85;0.98;;;21.60;49.90;;;;;;5081217;28;20032;-62
2024/02/14 06:07:46;;;;;;;0.82;0.68;;;21.60;49.90;;;;;;5078827;28;20107;-62
2024/02/14 06:10:12;;;;;;;0.93;0.75;;;21.60;49.90;;;;;;5080392;28;20024;-64
2024/02/14 06:12:40;;;;;;;1.27;0.70;;;21.60;49.90;;;;;;5075116;28;20404;-63
2024/02/14 06:15:07;;;;;;;1.38;0.98;;;21.60;49.90;;;;;;5080838;28;20036;-62
2024/02/14 06:17:33;;;;;;;1.35;0.90;;;21.60;50.00;;;;;;5079862;28;20396;-62
2024/02/14 06:19:58;;;;;;;1.10;0.85;;;21.60;50.00;;;;;;5064358;28;20028;-62
2024/02/14 06:22:24;;;;;;;1.00;0.80;;;21.60;50.00;;;;;;5082693;28;20132;-62
2024/02/14 06:24:50;;;;;;;0.85;0.75;;;21.60;50.00;;;;;;5080944;28;20027;-63
2024/02/14 06:27:16;;;;;;;1.42;1.00;;;21.60;50.00;;;;;;5072592;28;20075;-64
2024/02/14 06:29:45;;;;;;;1.00;0.80;;;21.60;50.00;;;;;;5081461;28;20037;-63
2024/02/14 06:32:13;;;;;;;1.00;0.80;;;21.50;50.00;;;;;;5080618;28;20031;-64
2024/02/14 06:34:39;;;;;;;1.43;0.80;;;21.60;50.10;;;;;;5079315;28;20039;-63
2024/02/14 06:37:05;;;;;;;1.25;0.90;;;21.60;50.10;;;;;;5080166;28;20275;-63
2024/02/14 06:39:31;;;;;;;1.08;0.80;;;21.50;50.10;;;;;;5082214;28;20024;-63
2024/02/14 06:41:59;;;;;;;1.10;0.80;;;21.50;50.10;;;;;;5071509;28;20110;-63
2024/02/14 06:44:25;;;;;;;1.02;0.90;;;21.50;50.10;;;;;;5081661;28;20393;-65
2024/02/14 06:46:51;;;;;;;0.80;0.70;;;21.50;50.10;;;;;;5081679;28;20033;-64
2024/02/14 06:49:17;;;;;;;1.20;0.90;;;21.50;50.10;;;;;;5081785;28;20029;-67
2024/02/14 06:51:42;;;;;;;1.20;0.90;;;21.50;50.20;;;;;;5078582;28;20439;-67
2024/02/14 06:54:08;;;;;;;2.05;0.90;;;21.50;50.20;;;;;;5080797;28;20033;-66
2024/02/14 06:56:35;;;;;;;0.68;0.68;;;21.50;50.20;;;;;;5081428;28;20420;-66
2024/02/14 06:59:02;;;;;;;1.00;0.73;;;21.50;50.20;;;;;;5079657;28;20567;-67
2024/02/14 07:01:28;;;;;;;1.23;0.88;;;21.50;50.30;;;;;;5060063;28;20028;-66
2024/02/14 07:03:53;;;;;;;1.05;0.80;;;21.40;50.20;;;;;;5077889;28;20055;-66
2024/02/14 07:06:19;;;;;;;1.02;0.77;;;21.40;50.20;;;;;;5078785;28;20052;-66
2024/02/14 07:08:45;;;;;;;1.13;0.95;;;21.40;50.70;;;;;;5079716;28;20025;-65
2024/02/14 07:11:11;;;;;;;1.10;0.80;;;21.40;50.30;;;;;;5077633;28;20103;-66
2024/02/14 07:13:37;;;;;;;1.40;0.90;;;21.40;50.30;;;;;;5079871;28;20047;-66
2024/02/14 07:16:02;;;;;;;1.30;0.80;;;21.40;50.30;;;;;;5081183;28;20096;-66
2024/02/14 07:18:28;;;;;;;1.10;0.90;;;21.40;50.40;;;;;;5077808;28;20036;-66
2024/02/14 07:20:54;;;;;;;1.27;0.90;;;21.40;50.30;;;;;;5081447;28;20027;-66
2024/02/14 07:23:20;;;;;;;0.93;0.77;;;21.40;50.30;;;;;;5078400;28;20024;-66
2024/02/14 07:25:46;;;;;;;1.33;0.80;;;21.40;50.40;;;;;;5080174;28;20037;-66
2024/02/14 07:28:12;;;;;;;1.10;0.90;;;21.40;50.40;;;;;;5080642;28;20031;-66
2024/02/14 07:30:38;;;;;;;1.15;0.77;;;21.40;50.90;;;;;;5070545;28;20089;-66
2024/02/14 07:33:03;;;;;;;1.23;0.90;;;21.40;50.40;;;;;;5077641;28;20512;-67
2024/02/14 07:35:29;;;;;;;1.30;0.90;;;21.30;50.40;;;;;;5079597;28;20084;-66
2024/02/14 07:37:55;;;;;;;1.88;0.98;;;21.30;50.40;;;;;;5079794;28;20028;-66
2024/02/14 07:40:22;;;;;;;1.25;0.80;;;21.30;50.40;;;;;;5078314;28;20036;-65
2024/02/14 07:42:47;;;;;;;0.90;0.77;;;21.30;50.40;;;;;;5078670;28;20046;-65
2024/02/14 07:45:13;;;;;;;0.88;0.73;;;21.30;50.40;;;;;;5079404;28;20024;-66
2024/02/14 07:47:40;;;;;;;2.38;0.90;;;21.30;50.40;;;;;;5081010;28;20029;-66
2024/02/14 07:50:06;;;;;;;2.47;1.10;;;21.30;50.50;;;;;;5075912;28;20738;-65
2024/02/14 07:52:32;;;;;;;1.40;0.90;;;21.30;50.50;;;;;;5076811;28;20032;-65
2024/02/14 07:54:58;;;;;;;1.35;0.90;;;21.30;50.50;;;;;;5079213;28;20024;-66
2024/02/14 07:57:24;;;;;;;1.23;0.90;;;21.30;50.50;;;;;;5078032;28;20120;-66
2024/02/14 07:59:51;;;;;;;1.23;0.90;;;21.30;50.50;;;;;;5078028;28;20035;-65
2024/02/14 08:02:17;;;;;;;1.10;0.80;;;21.30;50.50;;;;;;5081566;28;20060;-65
2024/02/14 08:04:43;;;;;;;1.67;1.20;;;21.30;50.50;;;;;;5077861;28;20021;-65
2024/02/14 08:07:09;;;;;;;1.52;0.98;;;21.30;50.50;;;;;;5076365;28;20031;-65
2024/02/14 08:09:36;;;;;;;1.58;1.00;;;21.20;50.50;;;;;;5080077;28;20031;-65
2024/02/14 08:12:01;;;;;;;1.35;1.00;;;21.30;50.50;;;;;;5077458;28;20384;-65
2024/02/14 08:14:27;;;;;;;1.23;0.90;;;21.20;50.50;;;;;;5079465;28;20028;-65
2024/02/14 08:16:53;;;;;;;1.10;0.90;;;21.20;50.50;;;;;;5077795;28;20034;-65
2024/02/14 08:19:18;;;;;;;1.15;0.80;;;21.20;50.50;;;;;;5077596;28;20392;-65
2024/02/14 08:21:45;;;;;;;1.10;0.80;;;21.20;50.60;;;;;;5093290;28;20502;-65
2024/02/14 08:24:11;;;;;;;1.20;0.77;;;21.20;50.60;;;;;;5079046;28;20027;-65
2024/02/14 08:26:36;;;;;;;1.23;0.75;;;21.20;50.60;;;;;;5078410;28;20040;-65
2024/02/14 08:29:03;;;;;;;1.30;0.90;;;21.20;50.60;;;;;;5078522;28;20039;-65
2024/02/14 08:31:29;;;;;;;1.00;0.80;;;21.20;50.60;;;;;;5079226;28;20028;-65
2024/02/14 08:33:55;;;;;;;1.02;0.90;;;21.20;50.60;;;;;;5078169;28;20036;-65
2024/02/14 08:36:20;;;;;;;1.70;1.00;;;21.20;50.60;;;;;;5079079;28;20048;-65
2024/02/14 08:38:46;;;;;;;1.85;1.10;;;21.20;50.50;;;;;;5077437;28;20017;-65
2024/02/14 08:41:12;;;;;;;1.80;1.00;;;21.20;50.40;;;;;;5077661;28;20026;-64
2024/02/14 08:43:38;;;;;;;1.45;1.02;;;21.20;50.40;;;;;;5078190;28;20041;-64
2024/02/14 08:46:10;;;;;;;1.90;1.10;;;21.20;50.20;;;;;;5077216;28;20082;-64
2024/02/14 08:48:35;;;;;;;1.88;1.17;;;21.20;50.20;;;;;;5075770;28;20024;-64
2024/02/14 08:51:01;;;;;;;1.67;1.10;;;21.10;50.10;;;;;;5075449;28;20134;-65
2024/02/14 08:53:27;;;;;;;1.38;1.00;;;21.10;50.10;;;;;;5076566;28;20025;-65
2024/02/14 08:55:52;;;;;;;2.17;1.30;;;21.20;50.20;;;;;;5077249;28;20028;-65
2024/02/14 08:58:18;;;;;;;2.10;1.20;;;21.10;50.20;;;;;;5092672;28;20423;-66
2024/02/14 09:00:44;;;;;;;2.33;1.17;;;21.10;50.20;;;;;;5077837;28;20048;-66
2024/02/14 09:03:09;;;;;;;1.50;0.90;;;21.10;50.20;;;;;;5078901;28;20028;-66
2024/02/14 09:05:37;;;;;;;1.95;0.98;;;21.10;50.20;;;;;;5077432;28;20480;-66
2024/02/14 09:08:03;;;;;;;1.20;0.95;;;21.10;50.10;;;;;;5077182;28;20020;-65
2024/02/14 09:10:28;;;;;;;2.13;1.30;;;21.10;50.00;;;;;;5077935;28;20035;-64
2024/02/14 09:12:54;;;;;;;1.48;1.10;;;21.10;50.00;;;;;;5077948;28;20031;-64
2024/02/14 09:15:20;;;;;;;1.50;0.95;;;21.10;49.90;;;;;;5078000;28;20060;-62
2024/02/14 09:17:45;;;;;;;1.50;1.00;;;21.10;49.90;;;;;;5077506;28;20481;-63
2024/02/14 09:20:13;;;;;;;1.60;1.20;;;21.10;49.90;;;;;;5079482;28;20033;-63
2024/02/14 09:22:41;;;;;;;2.00;1.02;;;21.10;49.90;;;;;;5077001;28;20506;-64
2024/02/14 09:25:09;;;;;;;1.55;1.10;;;21.10;49.90;;;;;;5079460;28;20028;-62
2024/02/14 09:27:35;;;;;;;1.83;1.10;;;21.10;49.90;;;;;;5095280;28;20515;-63
2024/02/14 09:30:03;;;;;;;1.85;1.10;;;21.10;49.80;;;;;;5068168;28;20063;-62
2024/02/14 09:32:32;;;;;;;2.05;1.27;;;21.10;49.90;;;;;;5079340;28;20047;-63
2024/02/14 09:34:59;;;;;;;1.23;0.90;;;21.00;49.80;;;;;;5079271;28;20016;-63
2024/02/14 09:37:25;;;;;;;1.92;1.20;;;21.00;49.80;;;;;;5076521;28;20023;-63
2024/02/14 09:39:51;;;;;;;2.20;1.10;;;21.00;49.80;;;;;;5077718;28;20036;-62
2024/02/14 09:42:26;;;;;;;3.55;1.48;;;21.00;49.80;;;;;;5076027;28;20381;-63
2024/02/14 09:44:57;;;;;;;2.28;1.02;;;21.00;49.80;;;;;;5078085;28;20028;-63
2024/02/14 09:47:22;;;;;;;1.30;1.00;;;21.00;49.90;;;;;;5077249;28;20517;-63
2024/02/14 09:49:49;;;;;;;2.08;1.17;;;21.00;49.90;;;;;;5077169;28;20119;-63
2024/02/14 09:52:15;;;;;;;1.48;1.05;;;21.00;50.50;;;;;;5082925;28;20500;-64
2024/02/14 09:54:41;;;;;;;1.58;1.10;;;21.00;50.50;;;;;;5082451;28;20023;-64
2024/02/14 09:57:07;;;;;;;1.65;1.10;;;21.00;50.00;;;;;;5061446;28;20024;-62
2024/02/14 09:59:35;;;;;;;1.67;1.10;;;21.00;50.00;;;;;;5083804;28;20024;-63
2024/02/14 10:02:01;;;;;;;1.98;1.10;;;21.00;50.10;;;;;;5097015;28;20036;-63
2024/02/14 10:04:27;;;;;;;1.67;1.05;;;21.00;50.10;;;;;;5082928;28;20109;-63
2024/02/14 10:06:52;;;;;;;1.52;1.00;;;21.00;50.10;;;;;;5082799;28;20078;-63
2024/02/14 10:09:22;;;;;;;1.27;1.00;;;21.00;50.60;;;;;;5081751;28;20032;-63
2024/02/14 10:11:48;;;;;;;;;;;21.00;50.10;;;;;;5080080;28;20379;-63
2024/02/14 10:14:13;;;;;;;2.20;1.10;;;21.00;50.10;;;;;;5081822;28;19919;-63
2024/02/14 10:16:39;;;;;;;1.77;1.02;;;21.00;50.10;;;;;;5080776;28;20020;-63
2024/02/14 10:19:07;;;;;;;1.38;0.90;;;21.00;50.10;;;;;;5081421;28;20039;-62
2024/02/14 10:21:33;;;;;;;2.70;1.23;;;21.00;50.20;;;;;;5071530;28;20107;-63
2024/02/14 10:24:02;;;;;;;1.58;1.00;;;21.00;50.20;;;;;;5080938;28;20592;-63
2024/02/14 10:26:29;;;;;;;1.98;1.10;;;21.00;50.20;;;;;;5081454;28;20028;-63
2024/02/14 10:28:57;;;;;;;1.55;1.00;;;21.00;50.30;;;;;;5074961;28;20045;-63
2024/02/14 10:31:26;;;;;;;1.63;1.10;;;21.00;50.70;;;;;;5079369;28;20531;-62
2024/02/14 10:33:54;;;;;;;1.50;0.98;;;20.90;50.20;;;;;;5062862;28;20032;-62
2024/02/14 10:36:21;;;;;;;1.58;0.90;;;21.00;50.30;;;;;;5079257;28;20039;-64
2024/02/14 10:38:50;;;;;;;1.85;1.15;;;20.90;50.20;;;;;;5079845;28;20506;-62
2024/02/14 10:41:17;;;;;;;1.35;1.00;;;21.00;50.30;;;;;;5083111;28;20177;-63
2024/02/14 10:43:46;;;;;;;1.83;1.10;;;20.90;50.30;;;;;;5080711;28;20453;-63
2024/02/14 10:46:23;;;;;;;1.85;1.00;;;20.90;50.30;;;;;;5080568;28;20024;-63
2024/02/14 10:48:53;;;;;;;1.60;1.08;;;20.90;50.30;;;;;;5079862;28;20714;-62
2024/02/14 10:51:21;;;;;;;1.90;1.10;;;20.90;50.40;;;;;;5080469;28;20086;-64
2024/02/14 10:53:49;;;;;;;2.08;1.10;;;20.90;50.30;;;;;;5080782;28;20111;-62
2024/02/14 10:56:21;;;;;;;1.98;1.17;;;20.90;50.40;;;;;;5082688;28;20028;-62
2024/02/14 10:58:49;;;;;;;1.50;1.08;;;20.90;50.40;;;;;;5081155;28;20077;-62
2024/02/14 11:01:16;;;;;;;1.70;1.00;;;20.90;50.40;;;;;;5080113;28;20016;-62
2024/02/14 11:03:44;;;;;;;1.50;1.00;;;20.90;50.40;;;;;;5078657;28;20025;-63
2024/02/14 11:06:16;;;;;;;1.63;1.00;;;20.90;50.40;;;;;;5082076;28;20043;-63
2024/02/14 11:08:42;;;;;;;1.70;1.10;;;20.90;50.40;;;;;;5077366;28;20496;-62
2024/02/14 11:11:08;;;;;;;2.30;1.20;;;20.90;50.50;;;;;;5079428;28;20028;-67
2024/02/14 11:13:35;;;;;;;1.60;1.00;;;20.90;50.50;;;;;;5081320;28;20020;-68
2024/02/14 11:16:02;;;;;;;1.67;1.13;;;20.90;50.50;;;;;;5081203;28;20024;-68
2024/02/14 11:18:29;;;;;;;2.03;1.15;;;20.90;50.60;;;;;;5081022;28;20023;-69
2024/02/14 11:20:57;;;;;;;1.60;1.10;;;20.90;50.60;;;;;;5080726;28;20522;-70
2024/02/14 11:23:23;;;;;;;1.40;1.00;;;20.90;50.60;;;;;;5078045;28;20406;-70
2024/02/14 11:25:49;;;;;;;1.98;1.10;;;20.90;50.60;;;;;;5079496;28;20035;-70
2024/02/14 11:28:25;;;;;;;1.92;1.08;;;20.90;50.60;;;;;;5079239;28;20020;-70
2024/02/14 11:30:51;;;;;;;3.08;1.20;;;20.90;50.60;;;;;;5082295;28;20036;-66
2024/02/14 11:33:20;;;;;;;1.52;1.00;;;20.90;50.60;;;;;;5079637;28;20044;-66
2024/02/14 11:35:47;;;;;;;1.30;1.05;;;20.90;50.70;;;;;;5080007;28;20043;-66
2024/02/14 11:38:14;;;;;;;1.63;1.17;;;20.90;50.70;;;;;;5078981;28;20021;-66
2024/02/14 11:40:40;;;;;;;1.77;1.00;;;20.80;50.70;;;;;;5079786;28;20025;-66
2024/02/14 11:43:14;;;;;;;1.67;1.00;;;20.90;50.70;;;;;;5079945;28;20024;-66
2024/02/14 11:45:45;;;;;;;2.80;1.05;;;20.90;50.70;;;;;;5079360;28;20020;-65
2024/02/14 11:48:14;;;;;;;1.70;1.10;;;20.90;50.80;;;;;;5080608;28;20032;-66
2024/02/14 11:50:42;;;;;;;2.05;1.20;;;20.90;50.70;;;;;;5079208;28;20487;-66
2024/02/14 11:53:11;;;;;;;2.78;1.20;;;20.90;50.70;;;;;;5078780;28;20058;-66
2024/02/14 11:55:41;;;;;;;2.17;1.10;;;20.90;50.70;;;;;;5079701;28;20024;-66
2024/02/14 11:58:17;;;;;;;2.03;1.10;;;20.90;50.70;;;;;;5077149;28;20464;-65
2024/02/14 12:00:45;;;;;;;1.83;1.00;;;20.80;50.60;;;;;;5078943;28;20117;-65
2024/02/14 12:03:19;;;;;;;1.70;1.00;;;20.90;50.70;;;;;;5078556;28;20031;-65
2024/02/14 12:05:47;;;;;;;1.95;1.00;;;20.90;50.70;;;;;;5079482;28;20406;-65
2024/02/14 12:08:13;;;;;;;2.22;1.13;;;20.90;50.70;;;;;;5068478;28;20031;-66
2024/02/14 12:10:42;;;;;;;1.70;1.00;;;20.90;50.70;;;;;;5079871;28;20992;-66
2024/02/14 12:13:12;;;;;;;1.90;1.30;;;20.80;50.70;;;;;;5076833;28;20115;-66
2024/02/14 12:15:41;;;;;;;2.75;1.27;;;20.90;50.70;;;;;;5078810;28;20031;-66
2024/02/14 12:18:09;;;;;;;1.95;1.00;;;20.80;50.70;;;;;;5060154;28;20101;-66
2024/02/14 12:20:34;;;;;;;2.22;1.10;;;20.90;50.70;;;;;;5079935;28;20553;-71
2024/02/14 12:23:00;;;;;;;1.83;1.10;;;20.90;50.70;;;;;;5079295;28;20052;-70
2024/02/14 12:25:26;;;;;;;1.95;1.20;;;20.80;50.70;;;;;;5078979;28;20036;-72
2024/02/14 12:27:53;;;;;;;1.63;1.00;;;20.80;50.70;;;;;;5078245;28;20666;-70
2024/02/14 12:30:20;;;;;;;1.90;1.10;;;20.80;50.70;;;;;;5078143;28;20346;-69
2024/02/14 12:32:46;;;;;;;1.63;1.10;;;20.90;50.80;;;;;;5076233;28;20909;-69
2024/02/14 12:35:11;;;;;;;2.75;1.30;;;20.90;50.80;;;;;;5079421;28;20024;-70
2024/02/14 12:37:37;;;;;;;1.80;1.00;;;20.80;50.80;;;;;;5077877;28;20398;-69
2024/02/14 12:40:05;;;;;;;2.00;1.08;;;20.90;50.80;;;;;;5077297;28;20109;-62
2024/02/14 12:42:32;;;;;;;1.65;1.08;;;20.80;50.80;;;;;;5079400;28;20100;-63
2024/02/14 12:44:58;;;;;;;1.90;1.10;;;20.80;50.80;;;;;;5094725;28;20028;-63